sensor_id;sensor_type;location;lat;lon;timestamp;P1;durP1;ratioP1;P2;durP2;ratioP2
42364;SDS011;28498;54.400;18.566;2023-01-10T00:00:40;31.65;;;15.32;;
42364;SDS011;28498;54.400;18.566;2023-01-10T00:03:08;33.15;;;15.48;;
42364;SDS011;28498;54.400;18.566;2023-01-10T00:05:36;31.48;;;15.38;;
42364;SDS011;28498;54.400;18.566;2023-01-10T00:08:04;32.30;;;15.85;;
42364;SDS011;28498;54.400;18.566;2023-01-10T00:10:32;29.73;;;15.43;;
42364;SDS011;28498;54.400;18.566;2023-01-10T00:13:00;31.40;;;14.88;;
42364;SDS011;28498;54.400;18.566;2023-01-10T00:15:45;29.98;;;14.27;;
42364;SDS011;28498;54.400;18.566;2023-01-10T00:18:13;27.10;;;13.40;;
42364;SDS011;28498;54.400;18.566;2023-01-10T00:20:40;25.20;;;12.75;;
42364;SDS011;28498;54.400;18.566;2023-01-10T00:23:09;25.70;;;12.35;;
42364;SDS011;28498;54.400;18.566;2023-01-10T00:25:37;30.17;;;13.43;;
42364;SDS011;28498;54.400;18.566;2023-01-10T00:28:04;22.95;;;12.05;;
42364;SDS011;28498;54.400;18.566;2023-01-10T00:30:52;23.83;;;12.30;;
42364;SDS011;28498;54.400;18.566;2023-01-10T00:33:21;24.20;;;12.63;;
42364;SDS011;28498;54.400;18.566;2023-01-10T00:35:48;23.77;;;12.75;;
42364;SDS011;28498;54.400;18.566;2023-01-10T00:38:15;26.48;;;13.05;;
42364;SDS011;28498;54.400;18.566;2023-01-10T00:40:42;23.60;;;12.20;;
42364;SDS011;28498;54.400;18.566;2023-01-10T00:43:10;25.33;;;13.55;;
42364;SDS011;28498;54.400;18.566;2023-01-10T00:45:55;26.42;;;12.77;;
42364;SDS011;28498;54.400;18.566;2023-01-10T00:48:23;24.73;;;12.35;;
42364;SDS011;28498;54.400;18.566;2023-01-10T00:50:50;22.65;;;11.95;;
42364;SDS011;28498;54.400;18.566;2023-01-10T00:53:17;23.65;;;13.13;;
42364;SDS011;28498;54.400;18.566;2023-01-10T00:55:45;24.48;;;12.80;;
42364;SDS011;28498;54.400;18.566;2023-01-10T00:58:12;22.55;;;11.95;;
42364;SDS011;28498;54.400;18.566;2023-01-10T01:00:41;23.20;;;11.52;;
42364;SDS011;28498;54.400;18.566;2023-01-10T01:03:12;20.00;;;11.32;;
42364;SDS011;28498;54.400;18.566;2023-01-10T01:05:40;24.98;;;11.30;;
42364;SDS011;28498;54.400;18.566;2023-01-10T01:08:08;21.48;;;11.48;;
42364;SDS011;28498;54.400;18.566;2023-01-10T01:10:35;20.13;;;11.43;;
42364;SDS011;28498;54.400;18.566;2023-01-10T01:13:07;24.85;;;11.80;;
42364;SDS011;28498;54.400;18.566;2023-01-10T01:15:35;22.95;;;11.88;;
42364;SDS011;28498;54.400;18.566;2023-01-10T01:18:03;23.20;;;12.57;;
42364;SDS011;28498;54.400;18.566;2023-01-10T01:20:31;25.85;;;13.00;;
42364;SDS011;28498;54.400;18.566;2023-01-10T01:22:59;23.55;;;11.30;;
42364;SDS011;28498;54.400;18.566;2023-01-10T01:25:26;22.40;;;10.90;;
42364;SDS011;28498;54.400;18.566;2023-01-10T01:27:53;22.92;;;11.85;;
42364;SDS011;28498;54.400;18.566;2023-01-10T01:30:20;24.77;;;12.18;;
42364;SDS011;28498;54.400;18.566;2023-01-10T01:32:47;24.42;;;12.02;;
42364;SDS011;28498;54.400;18.566;2023-01-10T01:35:14;23.33;;;12.48;;
42364;SDS011;28498;54.400;18.566;2023-01-10T01:37:42;26.20;;;12.68;;
42364;SDS011;28498;54.400;18.566;2023-01-10T01:40:11;24.58;;;11.65;;
42364;SDS011;28498;54.400;18.566;2023-01-10T01:42:40;22.55;;;12.43;;
42364;SDS011;28498;54.400;18.566;2023-01-10T01:47:36;22.95;;;11.57;;
42364;SDS011;28498;54.400;18.566;2023-01-10T01:50:15;25.10;;;12.05;;
42364;SDS011;28498;54.400;18.566;2023-01-10T01:52:50;26.52;;;12.27;;
42364;SDS011;28498;54.400;18.566;2023-01-10T01:55:20;25.80;;;12.45;;
42364;SDS011;28498;54.400;18.566;2023-01-10T01:57:48;35.45;;;12.80;;
42364;SDS011;28498;54.400;18.566;2023-01-10T02:00:18;28.48;;;11.23;;
42364;SDS011;28498;54.400;18.566;2023-01-10T02:02:48;25.10;;;12.68;;
42364;SDS011;28498;54.400;18.566;2023-01-10T02:05:28;24.63;;;12.40;;
42364;SDS011;28498;54.400;18.566;2023-01-10T02:07:57;27.90;;;13.07;;
42364;SDS011;28498;54.400;18.566;2023-01-10T02:13:18;29.13;;;12.65;;
42364;SDS011;28498;54.400;18.566;2023-01-10T02:15:49;26.63;;;12.02;;
42364;SDS011;28498;54.400;18.566;2023-01-10T02:18:16;27.50;;;12.48;;
42364;SDS011;28498;54.400;18.566;2023-01-10T02:24:06;20.80;;;11.18;;
42364;SDS011;28498;54.400;18.566;2023-01-10T02:37:35;24.67;;;12.73;;
42364;SDS011;28498;54.400;18.566;2023-01-10T02:45:54;25.45;;;11.68;;
42364;SDS011;28498;54.400;18.566;2023-01-10T02:48:31;22.67;;;11.05;;
42364;SDS011;28498;54.400;18.566;2023-01-10T02:51:00;24.60;;;11.63;;
42364;SDS011;28498;54.400;18.566;2023-01-10T02:53:53;24.05;;;10.48;;
42364;SDS011;28498;54.400;18.566;2023-01-10T02:56:40;24.88;;;12.32;;
42364;SDS011;28498;54.400;18.566;2023-01-10T03:05:24;26.13;;;11.77;;
42364;SDS011;28498;54.400;18.566;2023-01-10T03:08:36;22.27;;;11.70;;
42364;SDS011;28498;54.400;18.566;2023-01-10T03:11:05;26.60;;;11.98;;
42364;SDS011;28498;54.400;18.566;2023-01-10T03:16:01;31.45;;;12.60;;
42364;SDS011;28498;54.400;18.566;2023-01-10T03:18:34;28.92;;;13.40;;
42364;SDS011;28498;54.400;18.566;2023-01-10T03:21:09;26.63;;;12.43;;
42364;SDS011;28498;54.400;18.566;2023-01-10T03:23:37;31.13;;;13.95;;
42364;SDS011;28498;54.400;18.566;2023-01-10T03:26:05;31.60;;;14.32;;
42364;SDS011;28498;54.400;18.566;2023-01-10T03:28:40;31.50;;;13.57;;
42364;SDS011;28498;54.400;18.566;2023-01-10T03:31:21;31.48;;;14.25;;
42364;SDS011;28498;54.400;18.566;2023-01-10T03:33:53;37.10;;;15.50;;
42364;SDS011;28498;54.400;18.566;2023-01-10T03:36:31;36.00;;;15.27;;
42364;SDS011;28498;54.400;18.566;2023-01-10T03:39:07;35.20;;;15.15;;
42364;SDS011;28498;54.400;18.566;2023-01-10T03:41:51;32.28;;;14.07;;
42364;SDS011;28498;54.400;18.566;2023-01-10T03:44:32;32.92;;;15.65;;
42364;SDS011;28498;54.400;18.566;2023-01-10T03:47:14;36.63;;;15.52;;
42364;SDS011;28498;54.400;18.566;2023-01-10T03:49:48;35.70;;;15.90;;
42364;SDS011;28498;54.400;18.566;2023-01-10T03:52:19;33.85;;;14.63;;
42364;SDS011;28498;54.400;18.566;2023-01-10T03:54:47;40.25;;;17.90;;
42364;SDS011;28498;54.400;18.566;2023-01-10T03:57:15;34.40;;;15.88;;
42364;SDS011;28498;54.400;18.566;2023-01-10T03:59:47;30.77;;;13.95;;
42364;SDS011;28498;54.400;18.566;2023-01-10T04:02:17;31.92;;;14.50;;
42364;SDS011;28498;54.400;18.566;2023-01-10T04:04:44;29.58;;;13.48;;
42364;SDS011;28498;54.400;18.566;2023-01-10T04:07:11;33.65;;;15.43;;
42364;SDS011;28498;54.400;18.566;2023-01-10T04:09:38;35.35;;;14.45;;
42364;SDS011;28498;54.400;18.566;2023-01-10T04:12:05;38.95;;;13.88;;
42364;SDS011;28498;54.400;18.566;2023-01-10T04:14:32;32.90;;;13.60;;
42364;SDS011;28498;54.400;18.566;2023-01-10T04:16:59;34.63;;;15.38;;
42364;SDS011;28498;54.400;18.566;2023-01-10T04:19:26;33.85;;;15.07;;
42364;SDS011;28498;54.400;18.566;2023-01-10T04:21:53;43.15;;;17.38;;
42364;SDS011;28498;54.400;18.566;2023-01-10T04:24:20;38.85;;;16.40;;
42364;SDS011;28498;54.400;18.566;2023-01-10T04:26:47;37.00;;;15.68;;
42364;SDS011;28498;54.400;18.566;2023-01-10T04:29:14;35.30;;;15.52;;
42364;SDS011;28498;54.400;18.566;2023-01-10T04:31:41;37.28;;;16.73;;
42364;SDS011;28498;54.400;18.566;2023-01-10T04:34:09;36.58;;;14.57;;
42364;SDS011;28498;54.400;18.566;2023-01-10T04:36:36;49.40;;;16.48;;
42364;SDS011;28498;54.400;18.566;2023-01-10T04:39:03;37.05;;;16.10;;
42364;SDS011;28498;54.400;18.566;2023-01-10T04:41:30;40.28;;;17.55;;
42364;SDS011;28498;54.400;18.566;2023-01-10T04:43:57;39.08;;;15.95;;
42364;SDS011;28498;54.400;18.566;2023-01-10T04:46:24;37.33;;;15.88;;
42364;SDS011;28498;54.400;18.566;2023-01-10T04:48:51;41.15;;;17.23;;
42364;SDS011;28498;54.400;18.566;2023-01-10T04:51:18;31.35;;;14.85;;
42364;SDS011;28498;54.400;18.566;2023-01-10T04:53:45;35.30;;;16.15;;
42364;SDS011;28498;54.400;18.566;2023-01-10T04:56:14;41.25;;;16.50;;
42364;SDS011;28498;54.400;18.566;2023-01-10T04:58:44;33.25;;;15.05;;
42364;SDS011;28498;54.400;18.566;2023-01-10T05:01:12;32.20;;;14.85;;
42364;SDS011;28498;54.400;18.566;2023-01-10T05:03:41;37.92;;;15.82;;
42364;SDS011;28498;54.400;18.566;2023-01-10T05:06:08;32.03;;;14.48;;
42364;SDS011;28498;54.400;18.566;2023-01-10T05:08:35;31.52;;;14.68;;
42364;SDS011;28498;54.400;18.566;2023-01-10T05:11:03;30.73;;;14.30;;
42364;SDS011;28498;54.400;18.566;2023-01-10T05:13:30;29.20;;;14.07;;
42364;SDS011;28498;54.400;18.566;2023-01-10T05:15:57;29.75;;;13.85;;
42364;SDS011;28498;54.400;18.566;2023-01-10T05:18:25;30.92;;;14.40;;
42364;SDS011;28498;54.400;18.566;2023-01-10T05:21:00;26.92;;;12.75;;
42364;SDS011;28498;54.400;18.566;2023-01-10T05:23:27;30.55;;;12.55;;
42364;SDS011;28498;54.400;18.566;2023-01-10T05:25:55;27.10;;;13.60;;
42364;SDS011;28498;54.400;18.566;2023-01-10T05:28:22;28.88;;;13.05;;
42364;SDS011;28498;54.400;18.566;2023-01-10T05:30:49;23.27;;;11.38;;
42364;SDS011;28498;54.400;18.566;2023-01-10T05:33:16;25.10;;;12.50;;
42364;SDS011;28498;54.400;18.566;2023-01-10T05:35:43;26.60;;;12.80;;
42364;SDS011;28498;54.400;18.566;2023-01-10T05:38:10;22.25;;;11.13;;
42364;SDS011;28498;54.400;18.566;2023-01-10T05:40:37;22.33;;;11.90;;
42364;SDS011;28498;54.400;18.566;2023-01-10T05:43:04;22.10;;;11.15;;
42364;SDS011;28498;54.400;18.566;2023-01-10T05:45:31;27.95;;;10.30;;
42364;SDS011;28498;54.400;18.566;2023-01-10T05:47:59;21.33;;;9.55;;
42364;SDS011;28498;54.400;18.566;2023-01-10T05:50:25;21.55;;;10.57;;
42364;SDS011;28498;54.400;18.566;2023-01-10T05:52:52;18.13;;;9.68;;
42364;SDS011;28498;54.400;18.566;2023-01-10T05:55:19;21.52;;;9.73;;
42364;SDS011;28498;54.400;18.566;2023-01-10T05:57:47;21.13;;;9.93;;
42364;SDS011;28498;54.400;18.566;2023-01-10T06:00:14;19.15;;;10.25;;
42364;SDS011;28498;54.400;18.566;2023-01-10T06:02:41;22.42;;;9.65;;
42364;SDS011;28498;54.400;18.566;2023-01-10T06:05:08;19.63;;;9.77;;
42364;SDS011;28498;54.400;18.566;2023-01-10T06:07:35;17.77;;;9.00;;
42364;SDS011;28498;54.400;18.566;2023-01-10T06:10:02;20.90;;;9.55;;
42364;SDS011;28498;54.400;18.566;2023-01-10T06:12:30;15.40;;;8.77;;
42364;SDS011;28498;54.400;18.566;2023-01-10T06:14:57;23.15;;;9.77;;
42364;SDS011;28498;54.400;18.566;2023-01-10T06:17:24;16.63;;;9.40;;
42364;SDS011;28498;54.400;18.566;2023-01-10T06:19:51;17.13;;;8.98;;
42364;SDS011;28498;54.400;18.566;2023-01-10T06:22:18;19.30;;;9.30;;
42364;SDS011;28498;54.400;18.566;2023-01-10T06:24:45;19.80;;;9.23;;
42364;SDS011;28498;54.400;18.566;2023-01-10T06:27:12;19.52;;;8.90;;
42364;SDS011;28498;54.400;18.566;2023-01-10T06:29:39;15.88;;;7.88;;
42364;SDS011;28498;54.400;18.566;2023-01-10T06:32:06;20.80;;;9.77;;
42364;SDS011;28498;54.400;18.566;2023-01-10T06:34:32;20.95;;;8.82;;
42364;SDS011;28498;54.400;18.566;2023-01-10T06:37:00;20.40;;;9.40;;
42364;SDS011;28498;54.400;18.566;2023-01-10T06:39:27;17.80;;;8.73;;
42364;SDS011;28498;54.400;18.566;2023-01-10T06:41:54;23.50;;;9.43;;
42364;SDS011;28498;54.400;18.566;2023-01-10T06:44:21;18.85;;;9.20;;
42364;SDS011;28498;54.400;18.566;2023-01-10T06:46:48;19.90;;;8.65;;
42364;SDS011;28498;54.400;18.566;2023-01-10T06:49:15;17.50;;;9.00;;
42364;SDS011;28498;54.400;18.566;2023-01-10T06:51:42;17.23;;;8.38;;
42364;SDS011;28498;54.400;18.566;2023-01-10T06:54:08;21.23;;;10.32;;
42364;SDS011;28498;54.400;18.566;2023-01-10T06:56:35;20.42;;;9.73;;
42364;SDS011;28498;54.400;18.566;2023-01-10T06:59:02;19.08;;;9.93;;
42364;SDS011;28498;54.400;18.566;2023-01-10T07:01:32;17.52;;;8.68;;
42364;SDS011;28498;54.400;18.566;2023-01-10T07:04:00;17.75;;;8.63;;
42364;SDS011;28498;54.400;18.566;2023-01-10T07:06:27;17.90;;;8.40;;
42364;SDS011;28498;54.400;18.566;2023-01-10T07:08:54;17.77;;;9.05;;
42364;SDS011;28498;54.400;18.566;2023-01-10T07:11:21;21.20;;;9.10;;
42364;SDS011;28498;54.400;18.566;2023-01-10T07:13:48;22.02;;;9.65;;
42364;SDS011;28498;54.400;18.566;2023-01-10T07:16:19;18.50;;;8.82;;
42364;SDS011;28498;54.400;18.566;2023-01-10T07:18:46;19.10;;;9.35;;
42364;SDS011;28498;54.400;18.566;2023-01-10T07:21:13;21.65;;;9.88;;
42364;SDS011;28498;54.400;18.566;2023-01-10T07:23:42;20.60;;;8.95;;
42364;SDS011;28498;54.400;18.566;2023-01-10T07:26:09;21.95;;;9.68;;
42364;SDS011;28498;54.400;18.566;2023-01-10T07:28:37;21.75;;;9.70;;
42364;SDS011;28498;54.400;18.566;2023-01-10T07:31:04;20.60;;;9.98;;
42364;SDS011;28498;54.400;18.566;2023-01-10T07:33:32;22.25;;;9.52;;
42364;SDS011;28498;54.400;18.566;2023-01-10T07:35:59;18.85;;;8.00;;
42364;SDS011;28498;54.400;18.566;2023-01-10T07:38:27;19.13;;;8.77;;
42364;SDS011;28498;54.400;18.566;2023-01-10T07:40:54;19.02;;;8.65;;
42364;SDS011;28498;54.400;18.566;2023-01-10T07:43:21;20.92;;;8.65;;
42364;SDS011;28498;54.400;18.566;2023-01-10T07:45:49;22.13;;;8.82;;
42364;SDS011;28498;54.400;18.566;2023-01-10T07:48:16;19.77;;;8.85;;
42364;SDS011;28498;54.400;18.566;2023-01-10T07:50:43;21.38;;;9.23;;
42364;SDS011;28498;54.400;18.566;2023-01-10T07:53:10;24.38;;;10.60;;
42364;SDS011;28498;54.400;18.566;2023-01-10T07:55:37;18.65;;;10.23;;
42364;SDS011;28498;54.400;18.566;2023-01-10T07:58:05;22.73;;;9.27;;
42364;SDS011;28498;54.400;18.566;2023-01-10T08:00:36;23.52;;;10.63;;
42364;SDS011;28498;54.400;18.566;2023-01-10T08:03:03;22.65;;;10.63;;
42364;SDS011;28498;54.400;18.566;2023-01-10T08:05:31;26.10;;;11.63;;
42364;SDS011;28498;54.400;18.566;2023-01-10T08:08:03;30.10;;;10.65;;
42364;SDS011;28498;54.400;18.566;2023-01-10T08:10:34;25.33;;;10.35;;
42364;SDS011;28498;54.400;18.566;2023-01-10T08:13:02;24.70;;;11.75;;
42364;SDS011;28498;54.400;18.566;2023-01-10T08:15:44;24.40;;;11.38;;
42364;SDS011;28498;54.400;18.566;2023-01-10T08:18:12;24.70;;;12.18;;
42364;SDS011;28498;54.400;18.566;2023-01-10T08:20:39;24.35;;;11.60;;
42364;SDS011;28498;54.400;18.566;2023-01-10T08:23:06;21.80;;;12.45;;
42364;SDS011;28498;54.400;18.566;2023-01-10T08:25:34;24.90;;;11.70;;
42364;SDS011;28498;54.400;18.566;2023-01-10T08:28:04;28.23;;;12.18;;
42364;SDS011;28498;54.400;18.566;2023-01-10T08:30:32;32.10;;;13.57;;
42364;SDS011;28498;54.400;18.566;2023-01-10T08:33:02;23.52;;;11.05;;
42364;SDS011;28498;54.400;18.566;2023-01-10T08:35:35;22.52;;;11.32;;
42364;SDS011;28498;54.400;18.566;2023-01-10T08:38:03;24.63;;;11.13;;
42364;SDS011;28498;54.400;18.566;2023-01-10T08:40:30;27.77;;;12.60;;
42364;SDS011;28498;54.400;18.566;2023-01-10T08:42:58;21.92;;;10.75;;
42364;SDS011;28498;54.400;18.566;2023-01-10T08:45:30;24.60;;;12.80;;
42364;SDS011;28498;54.400;18.566;2023-01-10T08:47:57;25.30;;;12.07;;
42364;SDS011;28498;54.400;18.566;2023-01-10T08:50:24;26.23;;;11.85;;
42364;SDS011;28498;54.400;18.566;2023-01-10T08:52:51;24.90;;;13.20;;
42364;SDS011;28498;54.400;18.566;2023-01-10T08:55:19;25.60;;;12.77;;
42364;SDS011;28498;54.400;18.566;2023-01-10T08:57:46;27.23;;;13.35;;
42364;SDS011;28498;54.400;18.566;2023-01-10T09:00:13;24.83;;;11.70;;
42364;SDS011;28498;54.400;18.566;2023-01-10T09:02:40;26.35;;;12.23;;
42364;SDS011;28498;54.400;18.566;2023-01-10T09:05:08;25.55;;;12.80;;
42364;SDS011;28498;54.400;18.566;2023-01-10T09:07:51;27.45;;;12.30;;
42364;SDS011;28498;54.400;18.566;2023-01-10T09:10:22;25.10;;;11.32;;
42364;SDS011;28498;54.400;18.566;2023-01-10T09:12:49;23.35;;;11.13;;
42364;SDS011;28498;54.400;18.566;2023-01-10T09:15:24;26.27;;;11.52;;
42364;SDS011;28498;54.400;18.566;2023-01-10T09:17:53;25.88;;;10.95;;
42364;SDS011;28498;54.400;18.566;2023-01-10T09:20:22;24.85;;;10.20;;
42364;SDS011;28498;54.400;18.566;2023-01-10T09:22:50;22.50;;;10.25;;
42364;SDS011;28498;54.400;18.566;2023-01-10T09:25:17;20.20;;;10.38;;
42364;SDS011;28498;54.400;18.566;2023-01-10T09:27:44;21.23;;;9.68;;
42364;SDS011;28498;54.400;18.566;2023-01-10T09:30:11;21.92;;;10.55;;
42364;SDS011;28498;54.400;18.566;2023-01-10T09:32:39;22.55;;;11.60;;
42364;SDS011;28498;54.400;18.566;2023-01-10T09:35:06;22.02;;;10.35;;
42364;SDS011;28498;54.400;18.566;2023-01-10T09:37:33;21.52;;;10.30;;
42364;SDS011;28498;54.400;18.566;2023-01-10T09:40:00;20.90;;;9.60;;
42364;SDS011;28498;54.400;18.566;2023-01-10T09:48:23;17.85;;;9.60;;
42364;SDS011;28498;54.400;18.566;2023-01-10T09:54:02;21.83;;;8.95;;
42364;SDS011;28498;54.400;18.566;2023-01-10T09:56:38;19.25;;;9.63;;
42364;SDS011;28498;54.400;18.566;2023-01-10T09:59:51;21.88;;;8.90;;
42364;SDS011;28498;54.400;18.566;2023-01-10T10:02:44;22.20;;;7.97;;
42364;SDS011;28498;54.400;18.566;2023-01-10T10:07:55;19.02;;;8.00;;
42364;SDS011;28498;54.400;18.566;2023-01-10T10:15:56;19.13;;;9.02;;
42364;SDS011;28498;54.400;18.566;2023-01-10T10:18:49;16.10;;;7.97;;
42364;SDS011;28498;54.400;18.566;2023-01-10T10:33:16;16.25;;;8.02;;
42364;SDS011;28498;54.400;18.566;2023-01-10T10:36:42;15.07;;;8.18;;
42364;SDS011;28498;54.400;18.566;2023-01-10T10:38:50;19.75;;;8.63;;
42364;SDS011;28498;54.400;18.566;2023-01-10T10:41:28;17.42;;;9.75;;
42364;SDS011;28498;54.400;18.566;2023-01-10T10:46:59;19.00;;;10.35;;
42364;SDS011;28498;54.400;18.566;2023-01-10T10:49:37;16.63;;;8.82;;
42364;SDS011;28498;54.400;18.566;2023-01-10T10:52:13;17.40;;;9.35;;
42364;SDS011;28498;54.400;18.566;2023-01-10T10:54:45;19.10;;;9.05;;
42364;SDS011;28498;54.400;18.566;2023-01-10T10:57:13;18.80;;;8.40;;
42364;SDS011;28498;54.400;18.566;2023-01-10T10:59:40;17.10;;;9.60;;
42364;SDS011;28498;54.400;18.566;2023-01-10T11:02:19;18.20;;;9.50;;
42364;SDS011;28498;54.400;18.566;2023-01-10T11:04:47;18.15;;;8.70;;
42364;SDS011;28498;54.400;18.566;2023-01-10T11:07:16;16.42;;;8.63;;
42364;SDS011;28498;54.400;18.566;2023-01-10T11:09:45;17.17;;;10.15;;
42364;SDS011;28498;54.400;18.566;2023-01-10T11:12:32;18.55;;;9.30;;
42364;SDS011;28498;54.400;18.566;2023-01-10T11:15:01;18.15;;;8.93;;
42364;SDS011;28498;54.400;18.566;2023-01-10T11:17:29;17.17;;;8.50;;
42364;SDS011;28498;54.400;18.566;2023-01-10T11:20:03;16.83;;;8.48;;
42364;SDS011;28498;54.400;18.566;2023-01-10T11:22:52;17.30;;;9.10;;
42364;SDS011;28498;54.400;18.566;2023-01-10T11:25:20;20.58;;;9.70;;
42364;SDS011;28498;54.400;18.566;2023-01-10T11:27:56;15.80;;;8.27;;
42364;SDS011;28498;54.400;18.566;2023-01-10T11:30:30;17.85;;;9.13;;
42364;SDS011;28498;54.400;18.566;2023-01-10T11:33:02;16.95;;;7.82;;
42364;SDS011;28498;54.400;18.566;2023-01-10T11:35:33;15.98;;;8.07;;
42364;SDS011;28498;54.400;18.566;2023-01-10T11:40:51;14.70;;;7.97;;
42364;SDS011;28498;54.400;18.566;2023-01-10T11:43:28;15.77;;;8.30;;
42364;SDS011;28498;54.400;18.566;2023-01-10T11:45:56;20.40;;;8.90;;
42364;SDS011;28498;54.400;18.566;2023-01-10T11:48:50;16.73;;;8.68;;
42364;SDS011;28498;54.400;18.566;2023-01-10T11:51:45;19.02;;;8.63;;
42364;SDS011;28498;54.400;18.566;2023-01-10T11:54:16;20.75;;;10.15;;
42364;SDS011;28498;54.400;18.566;2023-01-10T11:59:51;21.83;;;11.70;;
42364;SDS011;28498;54.400;18.566;2023-01-10T12:02:24;24.27;;;11.23;;
42364;SDS011;28498;54.400;18.566;2023-01-10T12:04:57;24.63;;;11.10;;
42364;SDS011;28498;54.400;18.566;2023-01-10T12:07:28;22.10;;;11.25;;
42364;SDS011;28498;54.400;18.566;2023-01-10T12:09:59;24.67;;;11.23;;
42364;SDS011;28498;54.400;18.566;2023-01-10T12:12:28;30.40;;;14.65;;
42364;SDS011;28498;54.400;18.566;2023-01-10T12:14:57;27.25;;;12.55;;
42364;SDS011;28498;54.400;18.566;2023-01-10T12:17:32;24.80;;;12.95;;
42364;SDS011;28498;54.400;18.566;2023-01-10T12:20:02;25.95;;;13.93;;
42364;SDS011;28498;54.400;18.566;2023-01-10T12:25:02;29.65;;;14.68;;
42364;SDS011;28498;54.400;18.566;2023-01-10T12:27:42;31.25;;;14.27;;
42364;SDS011;28498;54.400;18.566;2023-01-10T12:33:06;33.72;;;16.60;;
42364;SDS011;28498;54.400;18.566;2023-01-10T12:35:45;33.70;;;15.75;;
42364;SDS011;28498;54.400;18.566;2023-01-10T12:52:35;34.50;;;17.50;;
42364;SDS011;28498;54.400;18.566;2023-01-10T12:55:12;35.35;;;18.33;;
42364;SDS011;28498;54.400;18.566;2023-01-10T12:57:45;37.33;;;18.77;;
42364;SDS011;28498;54.400;18.566;2023-01-10T13:00:23;39.08;;;21.08;;
42364;SDS011;28498;54.400;18.566;2023-01-10T13:03:00;42.10;;;18.85;;
42364;SDS011;28498;54.400;18.566;2023-01-10T13:05:35;45.88;;;19.67;;
42364;SDS011;28498;54.400;18.566;2023-01-10T13:08:03;37.83;;;17.95;;
42364;SDS011;28498;54.400;18.566;2023-01-10T13:10:37;36.90;;;18.88;;
42364;SDS011;28498;54.400;18.566;2023-01-10T13:18:38;35.35;;;19.05;;
42364;SDS011;28498;54.400;18.566;2023-01-10T13:21:25;39.08;;;19.08;;
42364;SDS011;28498;54.400;18.566;2023-01-10T13:23:53;37.65;;;18.40;;
42364;SDS011;28498;54.400;18.566;2023-01-10T13:29:20;41.83;;;21.20;;
42364;SDS011;28498;54.400;18.566;2023-01-10T13:31:51;35.42;;;18.23;;
42364;SDS011;28498;54.400;18.566;2023-01-10T13:34:30;41.28;;;19.20;;
42364;SDS011;28498;54.400;18.566;2023-01-10T13:37:00;34.38;;;16.73;;
42364;SDS011;28498;54.400;18.566;2023-01-10T13:39:37;37.28;;;17.50;;
42364;SDS011;28498;54.400;18.566;2023-01-10T14:06:04;38.95;;;18.05;;
42364;SDS011;28498;54.400;18.566;2023-01-10T14:08:39;40.60;;;18.23;;
42364;SDS011;28498;54.400;18.566;2023-01-10T14:11:08;43.63;;;19.00;;
42364;SDS011;28498;54.400;18.566;2023-01-10T14:13:37;39.70;;;17.77;;
42364;SDS011;28498;54.400;18.566;2023-01-10T14:16:44;41.57;;;18.20;;
42364;SDS011;28498;54.400;18.566;2023-01-10T14:19:06;36.00;;;18.00;;
42364;SDS011;28498;54.400;18.566;2023-01-10T14:21:54;43.53;;;20.50;;
42364;SDS011;28498;54.400;18.566;2023-01-10T14:24:24;43.72;;;19.77;;
42364;SDS011;28498;54.400;18.566;2023-01-10T14:26:55;39.78;;;18.77;;
42364;SDS011;28498;54.400;18.566;2023-01-10T14:29:29;42.80;;;21.45;;
42364;SDS011;28498;54.400;18.566;2023-01-10T14:31:59;48.35;;;20.65;;
42364;SDS011;28498;54.400;18.566;2023-01-10T14:34:27;50.75;;;22.20;;
42364;SDS011;28498;54.400;18.566;2023-01-10T14:39:29;52.58;;;23.95;;
42364;SDS011;28498;54.400;18.566;2023-01-10T14:41:57;49.55;;;21.90;;
42364;SDS011;28498;54.400;18.566;2023-01-10T14:47:29;53.35;;;21.83;;
42364;SDS011;28498;54.400;18.566;2023-01-10T14:49:59;55.30;;;24.33;;
42364;SDS011;28498;54.400;18.566;2023-01-10T14:52:28;45.30;;;22.23;;
42364;SDS011;28498;54.400;18.566;2023-01-10T14:57:57;45.00;;;19.77;;
42364;SDS011;28498;54.400;18.566;2023-01-10T15:00:29;54.20;;;21.33;;
42364;SDS011;28498;54.400;18.566;2023-01-10T15:02:58;41.90;;;18.20;;
42364;SDS011;28498;54.400;18.566;2023-01-10T15:05:29;56.25;;;20.63;;
42364;SDS011;28498;54.400;18.566;2023-01-10T15:10:49;47.88;;;19.60;;
42364;SDS011;28498;54.400;18.566;2023-01-10T15:13:19;62.15;;;26.85;;
42364;SDS011;28498;54.400;18.566;2023-01-10T15:15:49;50.85;;;22.50;;
42364;SDS011;28498;54.400;18.566;2023-01-10T15:21:12;59.60;;;24.85;;
42364;SDS011;28498;54.400;18.566;2023-01-10T15:23:41;53.42;;;23.33;;
42364;SDS011;28498;54.400;18.566;2023-01-10T15:26:10;44.80;;;19.23;;
42364;SDS011;28498;54.400;18.566;2023-01-10T15:28:43;56.30;;;22.83;;
42364;SDS011;28498;54.400;18.566;2023-01-10T15:31:14;50.08;;;20.60;;
42364;SDS011;28498;54.400;18.566;2023-01-10T15:33:43;74.72;;;29.48;;
42364;SDS011;28498;54.400;18.566;2023-01-10T15:36:12;48.58;;;22.15;;
42364;SDS011;28498;54.400;18.566;2023-01-10T15:38:43;52.65;;;19.73;;
42364;SDS011;28498;54.400;18.566;2023-01-10T15:41:16;67.13;;;26.48;;
42364;SDS011;28498;54.400;18.566;2023-01-10T15:43:48;57.72;;;23.27;;
42364;SDS011;28498;54.400;18.566;2023-01-10T15:46:21;58.45;;;22.77;;
42364;SDS011;28498;54.400;18.566;2023-01-10T15:48:56;54.85;;;21.00;;
42364;SDS011;28498;54.400;18.566;2023-01-10T15:51:36;66.63;;;26.00;;
42364;SDS011;28498;54.400;18.566;2023-01-10T15:54:05;53.22;;;22.77;;
42364;SDS011;28498;54.400;18.566;2023-01-10T15:56:51;63.38;;;25.17;;
42364;SDS011;28498;54.400;18.566;2023-01-10T16:04:48;51.10;;;21.02;;
42364;SDS011;28498;54.400;18.566;2023-01-10T16:07:23;51.63;;;22.00;;
42364;SDS011;28498;54.400;18.566;2023-01-10T16:10:00;48.75;;;20.77;;
42364;SDS011;28498;54.400;18.566;2023-01-10T16:15:24;49.85;;;21.00;;
42364;SDS011;28498;54.400;18.566;2023-01-10T16:17:55;51.67;;;21.23;;
42364;SDS011;28498;54.400;18.566;2023-01-10T16:20:27;47.33;;;18.83;;
42364;SDS011;28498;54.400;18.566;2023-01-10T16:22:56;46.70;;;21.23;;
42364;SDS011;28498;54.400;18.566;2023-01-10T16:27:54;50.10;;;21.17;;
42364;SDS011;28498;54.400;18.566;2023-01-10T16:30:26;50.30;;;20.35;;
42364;SDS011;28498;54.400;18.566;2023-01-10T16:33:10;52.45;;;22.10;;
42364;SDS011;28498;54.400;18.566;2023-01-10T16:35:46;66.75;;;26.33;;
42364;SDS011;28498;54.400;18.566;2023-01-10T16:38:15;83.88;;;34.17;;
42364;SDS011;28498;54.400;18.566;2023-01-10T16:40:46;51.63;;;20.95;;
42364;SDS011;28498;54.400;18.566;2023-01-10T16:43:17;56.60;;;23.05;;
42364;SDS011;28498;54.400;18.566;2023-01-10T16:45:44;50.10;;;21.80;;
42364;SDS011;28498;54.400;18.566;2023-01-10T16:48:20;53.35;;;24.08;;
42364;SDS011;28498;54.400;18.566;2023-01-10T16:50:47;43.85;;;19.90;;
42364;SDS011;28498;54.400;18.566;2023-01-10T16:53:15;58.78;;;26.95;;
42364;SDS011;28498;54.400;18.566;2023-01-10T16:55:48;72.88;;;29.65;;
42364;SDS011;28498;54.400;18.566;2023-01-10T16:58:17;47.67;;;22.05;;
42364;SDS011;28498;54.400;18.566;2023-01-10T17:00:48;50.33;;;21.88;;